sensor_id;sensor_type;location;lat;lon;timestamp;temperature;humidity
10883;DHT22;5494;51.796;10.952;2022-08-11T00:00:13;19.00;95.90
10883;DHT22;5494;51.796;10.952;2022-08-11T00:02:45;19.00;95.90
10883;DHT22;5494;51.796;10.952;2022-08-11T00:05:18;19.00;96.00
10883;DHT22;5494;51.796;10.952;2022-08-11T00:07:50;19.10;96.20
10883;DHT22;5494;51.796;10.952;2022-08-11T00:10:23;19.00;96.40
10883;DHT22;5494;51.796;10.952;2022-08-11T00:12:54;19.00;96.40
10883;DHT22;5494;51.796;10.952;2022-08-11T00:15:26;18.90;96.80
10883;DHT22;5494;51.796;10.952;2022-08-11T00:18:04;18.90;97.00
10883;DHT22;5494;51.796;10.952;2022-08-11T00:20:37;18.90;97.10
10883;DHT22;5494;51.796;10.952;2022-08-11T00:23:11;18.90;97.10
10883;DHT22;5494;51.796;10.952;2022-08-11T00:25:49;18.80;97.60
10883;DHT22;5494;51.796;10.952;2022-08-11T00:28:27;18.80;97.80
10883;DHT22;5494;51.796;10.952;2022-08-11T00:30:58;18.70;98.10
10883;DHT22;5494;51.796;10.952;2022-08-11T00:33:33;18.70;98.80
10883;DHT22;5494;51.796;10.952;2022-08-11T00:36:14;18.60;99.30
10883;DHT22;5494;51.796;10.952;2022-08-11T00:38:51;18.50;99.70
10883;DHT22;5494;51.796;10.952;2022-08-11T00:41:31;18.50;99.90
10883;DHT22;5494;51.796;10.952;2022-08-11T00:44:13;18.60;99.90
10883;DHT22;5494;51.796;10.952;2022-08-11T00:46:59;18.60;99.90
10883;DHT22;5494;51.796;10.952;2022-08-11T00:49:44;18.50;99.90
10883;DHT22;5494;51.796;10.952;2022-08-11T00:52:31;18.50;99.90
10883;DHT22;5494;51.796;10.952;2022-08-11T00:55:36;18.50;99.90
10883;DHT22;5494;51.796;10.952;2022-08-11T00:58:51;18.40;99.90
10883;DHT22;5494;51.796;10.952;2022-08-11T01:02:13;18.40;99.90
10883;DHT22;5494;51.796;10.952;2022-08-11T01:05:15;18.40;99.90
10883;DHT22;5494;51.796;10.952;2022-08-11T01:08:27;18.40;99.90
10883;DHT22;5494;51.796;10.952;2022-08-11T01:11:36;18.40;99.90
10883;DHT22;5494;51.796;10.952;2022-08-11T01:14:46;18.30;99.90
10883;DHT22;5494;51.796;10.952;2022-08-11T01:18:24;18.30;99.90
10883;DHT22;5494;51.796;10.952;2022-08-11T01:21:37;18.30;99.90
10883;DHT22;5494;51.796;10.952;2022-08-11T01:24:59;18.20;99.90
10883;DHT22;5494;51.796;10.952;2022-08-11T01:28:12;18.20;99.90
10883;DHT22;5494;51.796;10.952;2022-08-11T01:41:25;18.10;99.90
10883;DHT22;5494;51.796;10.952;2022-08-11T01:44:34;18.00;99.90
10883;DHT22;5494;51.796;10.952;2022-08-11T01:47:30;18.00;99.90
10883;DHT22;5494;51.796;10.952;2022-08-11T01:50:29;18.00;99.90
10883;DHT22;5494;51.796;10.952;2022-08-11T01:53:12;18.00;99.90
10883;DHT22;5494;51.796;10.952;2022-08-11T01:56:23;18.00;99.90
10883;DHT22;5494;51.796;10.952;2022-08-11T01:59:09;18.00;99.90
10883;DHT22;5494;51.796;10.952;2022-08-11T02:02:01;18.00;99.90
10883;DHT22;5494;51.796;10.952;2022-08-11T02:04:55;18.00;99.90
10883;DHT22;5494;51.796;10.952;2022-08-11T02:07:37;18.00;99.90
10883;DHT22;5494;51.796;10.952;2022-08-11T02:10:26;18.00;99.90
10883;DHT22;5494;51.796;10.952;2022-08-11T02:13:35;18.00;99.90
10883;DHT22;5494;51.796;10.952;2022-08-11T02:16:19;17.90;99.90
10883;DHT22;5494;51.796;10.952;2022-08-11T02:19:11;17.90;99.90
10883;DHT22;5494;51.796;10.952;2022-08-11T02:22:17;17.90;99.90
10883;DHT22;5494;51.796;10.952;2022-08-11T02:25:21;17.90;99.90
10883;DHT22;5494;51.796;10.952;2022-08-11T02:28:02;17.90;99.90
10883;DHT22;5494;51.796;10.952;2022-08-11T02:30:45;17.80;99.90
10883;DHT22;5494;51.796;10.952;2022-08-11T02:34:13;17.80;99.90
10883;DHT22;5494;51.796;10.952;2022-08-11T02:36:54;17.70;99.90
10883;DHT22;5494;51.796;10.952;2022-08-11T02:39:35;17.60;99.90
10883;DHT22;5494;51.796;10.952;2022-08-11T02:42:18;17.60;99.90
10883;DHT22;5494;51.796;10.952;2022-08-11T02:45:18;17.60;99.90
10883;DHT22;5494;51.796;10.952;2022-08-11T02:48:13;17.60;99.90
10883;DHT22;5494;51.796;10.952;2022-08-11T02:51:11;17.50;99.90
10883;DHT22;5494;51.796;10.952;2022-08-11T02:53:56;17.50;99.90
10883;DHT22;5494;51.796;10.952;2022-08-11T02:56:40;17.50;99.90
10883;DHT22;5494;51.796;10.952;2022-08-11T02:59:26;17.50;99.90
10883;DHT22;5494;51.796;10.952;2022-08-11T03:02:41;17.50;99.90
10883;DHT22;5494;51.796;10.952;2022-08-11T03:05:40;17.50;99.90
10883;DHT22;5494;51.796;10.952;2022-08-11T03:08:30;17.50;99.90
10883;DHT22;5494;51.796;10.952;2022-08-11T03:11:18;17.50;99.90
10883;DHT22;5494;51.796;10.952;2022-08-11T03:14:14;17.50;99.90
10883;DHT22;5494;51.796;10.952;2022-08-11T03:17:20;17.50;99.90
10883;DHT22;5494;51.796;10.952;2022-08-11T03:20:12;17.50;99.90
10883;DHT22;5494;51.796;10.952;2022-08-11T03:22:58;17.50;99.90
10883;DHT22;5494;51.796;10.952;2022-08-11T03:25:50;17.10;99.90
10883;DHT22;5494;51.796;10.952;2022-08-11T03:28:29;17.50;99.90
10883;DHT22;5494;51.796;10.952;2022-08-11T03:31:09;17.50;99.90
10883;DHT22;5494;51.796;10.952;2022-08-11T03:33:53;17.50;99.90
10883;DHT22;5494;51.796;10.952;2022-08-11T03:36:53;17.50;99.90
10883;DHT22;5494;51.796;10.952;2022-08-11T03:39:56;17.40;99.90
10883;DHT22;5494;51.796;10.952;2022-08-11T03:42:36;17.40;99.90
10883;DHT22;5494;51.796;10.952;2022-08-11T03:45:24;17.40;99.90
10883;DHT22;5494;51.796;10.952;2022-08-11T03:48:10;17.30;99.90
10883;DHT22;5494;51.796;10.952;2022-08-11T03:50:54;17.30;99.90
10883;DHT22;5494;51.796;10.952;2022-08-11T03:53:47;17.30;99.90
10883;DHT22;5494;51.796;10.952;2022-08-11T04:06:52;17.20;99.90
10883;DHT22;5494;51.796;10.952;2022-08-11T04:10:06;17.30;99.90
10883;DHT22;5494;51.796;10.952;2022-08-11T04:13:19;17.20;99.90
10883;DHT22;5494;51.796;10.952;2022-08-11T04:16:15;17.20;99.90
10883;DHT22;5494;51.796;10.952;2022-08-11T04:22:50;17.30;99.90
10883;DHT22;5494;51.796;10.952;2022-08-11T04:25:48;17.50;99.90
10883;DHT22;5494;51.796;10.952;2022-08-11T04:28:54;17.50;99.90
10883;DHT22;5494;51.796;10.952;2022-08-11T04:31:43;17.70;99.90
10883;DHT22;5494;51.796;10.952;2022-08-11T04:34:46;17.80;99.90
10883;DHT22;5494;51.796;10.952;2022-08-11T04:37:47;18.00;99.90
10883;DHT22;5494;51.796;10.952;2022-08-11T04:40:55;18.00;99.90
10883;DHT22;5494;51.796;10.952;2022-08-11T04:44:17;18.40;99.90
10883;DHT22;5494;51.796;10.952;2022-08-11T04:47:09;18.60;99.90
10883;DHT22;5494;51.796;10.952;2022-08-11T04:50:41;18.90;99.90
10883;DHT22;5494;51.796;10.952;2022-08-11T04:53:53;19.20;99.90
10883;DHT22;5494;51.796;10.952;2022-08-11T04:56:47;19.60;99.90
10883;DHT22;5494;51.796;10.952;2022-08-11T04:59:57;19.90;99.90
10883;DHT22;5494;51.796;10.952;2022-08-11T05:03:34;20.20;99.90
10883;DHT22;5494;51.796;10.952;2022-08-11T05:10:02;21.20;99.90
10883;DHT22;5494;51.796;10.952;2022-08-11T05:12:45;21.90;99.90
10883;DHT22;5494;51.796;10.952;2022-08-11T05:15:20;22.40;99.90
10883;DHT22;5494;51.796;10.952;2022-08-11T05:18:22;22.70;99.90
10883;DHT22;5494;51.796;10.952;2022-08-11T05:21:12;23.10;99.90
10883;DHT22;5494;51.796;10.952;2022-08-11T05:24:18;23.50;99.50
10883;DHT22;5494;51.796;10.952;2022-08-11T05:27:09;23.90;99.40
10883;DHT22;5494;51.796;10.952;2022-08-11T05:30:02;24.10;99.60
10883;DHT22;5494;51.796;10.952;2022-08-11T05:32:56;24.30;99.00
10883;DHT22;5494;51.796;10.952;2022-08-11T05:35:49;24.70;98.00
10883;DHT22;5494;51.796;10.952;2022-08-11T05:38:34;25.20;97.00
10883;DHT22;5494;51.796;10.952;2022-08-11T05:41:23;25.40;96.40
10883;DHT22;5494;51.796;10.952;2022-08-11T05:44:17;25.60;95.90
10883;DHT22;5494;51.796;10.952;2022-08-11T05:47:06;25.90;93.90
10883;DHT22;5494;51.796;10.952;2022-08-11T05:49:53;26.20;93.50
10883;DHT22;5494;51.796;10.952;2022-08-11T05:52:44;26.50;92.60
10883;DHT22;5494;51.796;10.952;2022-08-11T05:55:40;26.90;92.10
10883;DHT22;5494;51.796;10.952;2022-08-11T05:58:34;27.30;90.80
10883;DHT22;5494;51.796;10.952;2022-08-11T06:01:09;27.80;87.40
10883;DHT22;5494;51.796;10.952;2022-08-11T06:03:43;27.60;87.00
10883;DHT22;5494;51.796;10.952;2022-08-11T06:06:30;28.20;85.50
10883;DHT22;5494;51.796;10.952;2022-08-11T06:09:00;29.20;82.30
10883;DHT22;5494;51.796;10.952;2022-08-11T06:11:30;29.90;78.40
10883;DHT22;5494;51.796;10.952;2022-08-11T06:14:12;31.10;73.70
10883;DHT22;5494;51.796;10.952;2022-08-11T06:16:47;32.10;68.90
10883;DHT22;5494;51.796;10.952;2022-08-11T06:19:19;32.10;66.70
10883;DHT22;5494;51.796;10.952;2022-08-11T06:21:50;32.00;66.30
10883;DHT22;5494;51.796;10.952;2022-08-11T06:24:20;32.30;63.10
10883;DHT22;5494;51.796;10.952;2022-08-11T06:26:51;32.60;61.80
10883;DHT22;5494;51.796;10.952;2022-08-11T06:29:46;32.50;61.90
10883;DHT22;5494;51.796;10.952;2022-08-11T06:32:23;31.80;62.30
10883;DHT22;5494;51.796;10.952;2022-08-11T06:35:03;31.70;63.10
10883;DHT22;5494;51.796;10.952;2022-08-11T06:37:45;31.60;63.80
10883;DHT22;5494;51.796;10.952;2022-08-11T06:40:33;31.90;62.90
10883;DHT22;5494;51.796;10.952;2022-08-11T06:43:15;32.20;61.80
10883;DHT22;5494;51.796;10.952;2022-08-11T06:45:54;32.00;62.20
10883;DHT22;5494;51.796;10.952;2022-08-11T06:48:31;31.50;62.20
10883;DHT22;5494;51.796;10.952;2022-08-11T06:51:03;31.50;62.20
10883;DHT22;5494;51.796;10.952;2022-08-11T06:53:43;31.70;61.00
10883;DHT22;5494;51.796;10.952;2022-08-11T06:56:33;31.90;60.60
10883;DHT22;5494;51.796;10.952;2022-08-11T06:59:43;31.50;62.10
10883;DHT22;5494;51.796;10.952;2022-08-11T07:02:31;31.60;61.80
10883;DHT22;5494;51.796;10.952;2022-08-11T07:05:07;31.50;62.10
10883;DHT22;5494;51.796;10.952;2022-08-11T07:11:54;31.80;61.20
10883;DHT22;5494;51.796;10.952;2022-08-11T07:14:50;30.40;63.30
10883;DHT22;5494;51.796;10.952;2022-08-11T07:17:42;30.70;62.90
10883;DHT22;5494;51.796;10.952;2022-08-11T07:20:15;31.20;61.90
10883;DHT22;5494;51.796;10.952;2022-08-11T07:23:03;31.00;61.20
10883;DHT22;5494;51.796;10.952;2022-08-11T07:25:56;29.90;63.10
10883;DHT22;5494;51.796;10.952;2022-08-11T07:28:47;29.90;63.20
10883;DHT22;5494;51.796;10.952;2022-08-11T07:31:34;30.50;62.50
10883;DHT22;5494;51.796;10.952;2022-08-11T07:34:14;31.10;61.50
10883;DHT22;5494;51.796;10.952;2022-08-11T07:36:50;31.30;61.20
10883;DHT22;5494;51.796;10.952;2022-08-11T07:39:22;31.40;61.00
10883;DHT22;5494;51.796;10.952;2022-08-11T07:41:55;31.60;59.90
10883;DHT22;5494;51.796;10.952;2022-08-11T07:44:26;31.10;60.20
10883;DHT22;5494;51.796;10.952;2022-08-11T07:47:03;31.20;60.90
10883;DHT22;5494;51.796;10.952;2022-08-11T07:49:52;31.50;58.80
10883;DHT22;5494;51.796;10.952;2022-08-11T07:52:38;31.70;58.80
10883;DHT22;5494;51.796;10.952;2022-08-11T07:55:11;32.40;57.80
10883;DHT22;5494;51.796;10.952;2022-08-11T07:57:44;33.20;56.60
10883;DHT22;5494;51.796;10.952;2022-08-11T08:00:49;33.60;56.60
10883;DHT22;5494;51.796;10.952;2022-08-11T08:03:50;33.40;56.50
10883;DHT22;5494;51.796;10.952;2022-08-11T08:06:38;32.40;57.70
10883;DHT22;5494;51.796;10.952;2022-08-11T08:09:25;32.40;57.70
10883;DHT22;5494;51.796;10.952;2022-08-11T08:12:11;32.30;58.30
10883;DHT22;5494;51.796;10.952;2022-08-11T08:15:00;32.90;57.20
10883;DHT22;5494;51.796;10.952;2022-08-11T08:17:52;32.30;57.90
10883;DHT22;5494;51.796;10.952;2022-08-11T08:20:47;32.30;58.20
10883;DHT22;5494;51.796;10.952;2022-08-11T08:23:18;32.30;57.90
10883;DHT22;5494;51.796;10.952;2022-08-11T08:26:02;32.90;57.70
10883;DHT22;5494;51.796;10.952;2022-08-11T08:28:54;33.50;56.40
10883;DHT22;5494;51.796;10.952;2022-08-11T08:31:45;33.80;55.60
10883;DHT22;5494;51.796;10.952;2022-08-11T08:34:15;32.70;57.20
10883;DHT22;5494;51.796;10.952;2022-08-11T08:36:48;32.30;58.00
10883;DHT22;5494;51.796;10.952;2022-08-11T08:39:19;32.10;58.40
10883;DHT22;5494;51.796;10.952;2022-08-11T08:41:51;32.20;59.40
10883;DHT22;5494;51.796;10.952;2022-08-11T08:44:23;31.80;59.80
10883;DHT22;5494;51.796;10.952;2022-08-11T08:47:10;32.40;58.90
10883;DHT22;5494;51.796;10.952;2022-08-11T08:50:04;33.10;57.90
10883;DHT22;5494;51.796;10.952;2022-08-11T08:52:51;33.90;56.70
10883;DHT22;5494;51.796;10.952;2022-08-11T08:55:24;34.20;54.90
10883;DHT22;5494;51.796;10.952;2022-08-11T08:57:56;33.80;54.90
10883;DHT22;5494;51.796;10.952;2022-08-11T09:00:37;34.20;54.80
10883;DHT22;5494;51.796;10.952;2022-08-11T09:03:08;34.70;54.20
10883;DHT22;5494;51.796;10.952;2022-08-11T09:05:57;35.20;53.90
10883;DHT22;5494;51.796;10.952;2022-08-11T09:08:30;35.20;53.00
10883;DHT22;5494;51.796;10.952;2022-08-11T09:11:00;34.10;54.30
10883;DHT22;5494;51.796;10.952;2022-08-11T09:13:48;34.00;54.10
10883;DHT22;5494;51.796;10.952;2022-08-11T09:16:33;34.50;53.40
10883;DHT22;5494;51.796;10.952;2022-08-11T09:19:03;34.50;53.30
10883;DHT22;5494;51.796;10.952;2022-08-11T09:21:32;33.50;53.70
10883;DHT22;5494;51.796;10.952;2022-08-11T09:24:17;32.70;55.40
10883;DHT22;5494;51.796;10.952;2022-08-11T09:27:05;32.40;55.70
10883;DHT22;5494;51.796;10.952;2022-08-11T09:29:37;32.00;55.40
10883;DHT22;5494;51.796;10.952;2022-08-11T09:32:06;32.40;54.60
10883;DHT22;5494;51.796;10.952;2022-08-11T09:34:37;31.00;56.50
10883;DHT22;5494;51.796;10.952;2022-08-11T09:37:08;30.30;57.30
10883;DHT22;5494;51.796;10.952;2022-08-11T09:40:16;30.50;57.80
10883;DHT22;5494;51.796;10.952;2022-08-11T09:43:01;31.20;56.00
10883;DHT22;5494;51.796;10.952;2022-08-11T09:45:51;31.80;56.40
10883;DHT22;5494;51.796;10.952;2022-08-11T09:48:23;32.20;52.80
10883;DHT22;5494;51.796;10.952;2022-08-11T09:50:54;32.30;53.50
10883;DHT22;5494;51.796;10.952;2022-08-11T09:53:34;32.50;53.40
10883;DHT22;5494;51.796;10.952;2022-08-11T09:56:11;32.20;54.00
10883;DHT22;5494;51.796;10.952;2022-08-11T09:59:01;31.90;54.50
10883;DHT22;5494;51.796;10.952;2022-08-11T10:01:36;31.80;53.80
10883;DHT22;5494;51.796;10.952;2022-08-11T10:04:12;30.90;52.90
10883;DHT22;5494;51.796;10.952;2022-08-11T10:06:48;30.60;53.30
10883;DHT22;5494;51.796;10.952;2022-08-11T10:09:37;30.20;53.60
10883;DHT22;5494;51.796;10.952;2022-08-11T10:12:10;30.00;55.90
10883;DHT22;5494;51.796;10.952;2022-08-11T10:14:44;29.80;55.50
10883;DHT22;5494;51.796;10.952;2022-08-11T10:17:35;29.60;56.20
10883;DHT22;5494;51.796;10.952;2022-08-11T10:20:31;29.10;56.70
10883;DHT22;5494;51.796;10.952;2022-08-11T10:23:02;28.60;57.30
10883;DHT22;5494;51.796;10.952;2022-08-11T10:25:50;29.40;56.30
10883;DHT22;5494;51.796;10.952;2022-08-11T10:28:35;30.70;55.80
10883;DHT22;5494;51.796;10.952;2022-08-11T10:31:24;31.60;54.20
10883;DHT22;5494;51.796;10.952;2022-08-11T10:34:26;31.40;53.90
10883;DHT22;5494;51.796;10.952;2022-08-11T10:36:55;30.70;54.60
10883;DHT22;5494;51.796;10.952;2022-08-11T10:39:28;30.30;54.30
10883;DHT22;5494;51.796;10.952;2022-08-11T10:41:58;30.70;53.90
10883;DHT22;5494;51.796;10.952;2022-08-11T10:45:07;31.20;53.30
10883;DHT22;5494;51.796;10.952;2022-08-11T10:47:57;31.00;54.10
10883;DHT22;5494;51.796;10.952;2022-08-11T10:50:26;29.70;56.10
10883;DHT22;5494;51.796;10.952;2022-08-11T10:53:14;29.40;54.90
10883;DHT22;5494;51.796;10.952;2022-08-11T10:56:03;29.20;55.80
10883;DHT22;5494;51.796;10.952;2022-08-11T10:58:51;28.70;56.90
10883;DHT22;5494;51.796;10.952;2022-08-11T11:01:28;28.40;57.10
10883;DHT22;5494;51.796;10.952;2022-08-11T11:04:04;28.30;57.10
10883;DHT22;5494;51.796;10.952;2022-08-11T11:06:47;28.20;57.60
10883;DHT22;5494;51.796;10.952;2022-08-11T11:09:24;28.40;57.10
10883;DHT22;5494;51.796;10.952;2022-08-11T11:12:06;28.80;56.60
10883;DHT22;5494;51.796;10.952;2022-08-11T11:14:56;29.20;56.80
10883;DHT22;5494;51.796;10.952;2022-08-11T11:17:50;29.20;56.70
10883;DHT22;5494;51.796;10.952;2022-08-11T11:20:26;28.40;57.30
10883;DHT22;5494;51.796;10.952;2022-08-11T11:23:13;28.30;57.80
10883;DHT22;5494;51.796;10.952;2022-08-11T11:26:24;28.20;58.20
10883;DHT22;5494;51.796;10.952;2022-08-11T11:29:29;28.40;56.40
10883;DHT22;5494;51.796;10.952;2022-08-11T11:32:17;28.60;56.70
10883;DHT22;5494;51.796;10.952;2022-08-11T11:35:06;28.60;56.40
10883;DHT22;5494;51.796;10.952;2022-08-11T11:37:54;28.80;56.40
10883;DHT22;5494;51.796;10.952;2022-08-11T11:40:32;28.80;56.90
10883;DHT22;5494;51.796;10.952;2022-08-11T11:43:01;28.50;56.90
10883;DHT22;5494;51.796;10.952;2022-08-11T11:45:31;28.40;56.50
10883;DHT22;5494;51.796;10.952;2022-08-11T11:48:00;28.30;56.90
10883;DHT22;5494;51.796;10.952;2022-08-11T11:50:32;28.10;56.50
10883;DHT22;5494;51.796;10.952;2022-08-11T11:53:06;28.10;56.30
10883;DHT22;5494;51.796;10.952;2022-08-11T11:55:37;27.90;56.60
10883;DHT22;5494;51.796;10.952;2022-08-11T11:58:07;27.90;56.10
10883;DHT22;5494;51.796;10.952;2022-08-11T12:00:54;27.70;56.60
10883;DHT22;5494;51.796;10.952;2022-08-11T12:03:42;27.90;56.60
10883;DHT22;5494;51.796;10.952;2022-08-11T12:06:17;28.10;56.30
10883;DHT22;5494;51.796;10.952;2022-08-11T12:08:51;28.20;57.40
10883;DHT22;5494;51.796;10.952;2022-08-11T12:11:23;28.10;57.40
10883;DHT22;5494;51.796;10.952;2022-08-11T12:14:11;27.90;57.90
10883;DHT22;5494;51.796;10.952;2022-08-11T12:16:45;28.00;57.10
10883;DHT22;5494;51.796;10.952;2022-08-11T12:19:18;28.10;57.30
10883;DHT22;5494;51.796;10.952;2022-08-11T12:21:54;27.90;57.70
10883;DHT22;5494;51.796;10.952;2022-08-11T12:24:41;27.90;57.50
10883;DHT22;5494;51.796;10.952;2022-08-11T12:27:29;28.00;57.10
10883;DHT22;5494;51.796;10.952;2022-08-11T12:29:59;28.10;56.00
10883;DHT22;5494;51.796;10.952;2022-08-11T12:32:34;28.10;56.50
10883;DHT22;5494;51.796;10.952;2022-08-11T12:35:06;28.30;57.50
10883;DHT22;5494;51.796;10.952;2022-08-11T12:37:39;28.50;57.80
10883;DHT22;5494;51.796;10.952;2022-08-11T12:40:13;28.30;57.40
10883;DHT22;5494;51.796;10.952;2022-08-11T12:43:21;28.30;57.40
10883;DHT22;5494;51.796;10.952;2022-08-11T12:46:27;28.50;57.30
10883;DHT22;5494;51.796;10.952;2022-08-11T12:49:06;28.40;55.60
10883;DHT22;5494;51.796;10.952;2022-08-11T12:51:59;28.40;55.10
10883;DHT22;5494;51.796;10.952;2022-08-11T12:54:48;28.30;55.80
10883;DHT22;5494;51.796;10.952;2022-08-11T12:57:30;28.10;56.20
10883;DHT22;5494;51.796;10.952;2022-08-11T13:00:20;28.10;56.20
10883;DHT22;5494;51.796;10.952;2022-08-11T13:03:09;27.90;56.70
10883;DHT22;5494;51.796;10.952;2022-08-11T13:05:58;28.20;56.80
10883;DHT22;5494;51.796;10.952;2022-08-11T13:08:33;28.40;56.20
10883;DHT22;5494;51.796;10.952;2022-08-11T13:11:06;28.50;55.20
10883;DHT22;5494;51.796;10.952;2022-08-11T13:14:14;28.50;55.60
10883;DHT22;5494;51.796;10.952;2022-08-11T13:16:44;28.50;56.00
10883;DHT22;5494;51.796;10.952;2022-08-11T13:19:32;28.40;55.40
10883;DHT22;5494;51.796;10.952;2022-08-11T13:22:02;28.20;55.50
10883;DHT22;5494;51.796;10.952;2022-08-11T13:24:34;28.00;56.40
10883;DHT22;5494;51.796;10.952;2022-08-11T13:27:05;28.20;55.30
10883;DHT22;5494;51.796;10.952;2022-08-11T13:29:35;28.20;55.80
10883;DHT22;5494;51.796;10.952;2022-08-11T13:32:05;28.10;55.90
10883;DHT22;5494;51.796;10.952;2022-08-11T13:34:35;28.20;55.80
10883;DHT22;5494;51.796;10.952;2022-08-11T13:37:09;28.40;56.30
10883;DHT22;5494;51.796;10.952;2022-08-11T13:39:42;28.50;55.60
10883;DHT22;5494;51.796;10.952;2022-08-11T13:42:16;28.70;54.90
10883;DHT22;5494;51.796;10.952;2022-08-11T13:44:48;28.60;54.80
10883;DHT22;5494;51.796;10.952;2022-08-11T13:47:18;28.50;55.50
10883;DHT22;5494;51.796;10.952;2022-08-11T13:49:50;28.30;54.60
10883;DHT22;5494;51.796;10.952;2022-08-11T13:52:19;28.30;55.30
10883;DHT22;5494;51.796;10.952;2022-08-11T13:54:49;28.30;55.10
10883;DHT22;5494;51.796;10.952;2022-08-11T13:57:21;28.50;55.40
10883;DHT22;5494;51.796;10.952;2022-08-11T14:00:11;28.50;55.50
10883;DHT22;5494;51.796;10.952;2022-08-11T14:02:55;28.70;55.70
10883;DHT22;5494;51.796;10.952;2022-08-11T14:05:26;28.80;55.30
10883;DHT22;5494;51.796;10.952;2022-08-11T14:08:00;28.60;55.30
10883;DHT22;5494;51.796;10.952;2022-08-11T14:10:33;28.40;54.90
10883;DHT22;5494;51.796;10.952;2022-08-11T14:13:09;28.30;55.70
10883;DHT22;5494;51.796;10.952;2022-08-11T14:16:17;28.20;56.00
10883;DHT22;5494;51.796;10.952;2022-08-11T14:18:51;28.40;55.50
10883;DHT22;5494;51.796;10.952;2022-08-11T14:21:23;28.30;55.50
10883;DHT22;5494;51.796;10.952;2022-08-11T14:24:10;28.40;55.20
10883;DHT22;5494;51.796;10.952;2022-08-11T14:26:40;28.40;55.10
10883;DHT22;5494;51.796;10.952;2022-08-11T14:29:14;28.50;54.80
10883;DHT22;5494;51.796;10.952;2022-08-11T14:31:54;28.40;55.10
10883;DHT22;5494;51.796;10.952;2022-08-11T14:34:25;28.30;54.40
10883;DHT22;5494;51.796;10.952;2022-08-11T14:37:00;28.30;54.50
10883;DHT22;5494;51.796;10.952;2022-08-11T14:39:33;28.40;54.70
10883;DHT22;5494;51.796;10.952;2022-08-11T14:42:06;28.50;54.70
10883;DHT22;5494;51.796;10.952;2022-08-11T14:44:58;28.60;54.30
10883;DHT22;5494;51.796;10.952;2022-08-11T14:48:15;28.50;53.90
10883;DHT22;5494;51.796;10.952;2022-08-11T14:50:45;28.50;54.40
10883;DHT22;5494;51.796;10.952;2022-08-11T14:53:14;28.40;54.20
10883;DHT22;5494;51.796;10.952;2022-08-11T14:55:45;28.50;54.40
10883;DHT22;5494;51.796;10.952;2022-08-11T14:58:31;28.60;54.00
10883;DHT22;5494;51.796;10.952;2022-08-11T15:01:03;28.60;53.40
10883;DHT22;5494;51.796;10.952;2022-08-11T15:03:54;28.50;54.20
10883;DHT22;5494;51.796;10.952;2022-08-11T15:06:42;28.40;54.20
10883;DHT22;5494;51.796;10.952;2022-08-11T15:09:11;28.30;54.30
10883;DHT22;5494;51.796;10.952;2022-08-11T15:11:40;28.30;54.40
10883;DHT22;5494;51.796;10.952;2022-08-11T15:14:26;28.30;55.00
10883;DHT22;5494;51.796;10.952;2022-08-11T15:17:14;28.20;54.60
10883;DHT22;5494;51.796;10.952;2022-08-11T15:19:44;28.10;54.30
10883;DHT22;5494;51.796;10.952;2022-08-11T15:22:28;28.30;54.50
10883;DHT22;5494;51.796;10.952;2022-08-11T15:25:14;28.30;54.00
10883;DHT22;5494;51.796;10.952;2022-08-11T15:27:46;28.40;54.30
10883;DHT22;5494;51.796;10.952;2022-08-11T15:30:35;28.30;54.40
10883;DHT22;5494;51.796;10.952;2022-08-11T15:33:25;28.30;53.90
10883;DHT22;5494;51.796;10.952;2022-08-11T15:36:15;28.20;54.70
10883;DHT22;5494;51.796;10.952;2022-08-11T15:39:07;28.40;55.10
10883;DHT22;5494;51.796;10.952;2022-08-11T15:41:50;28.30;55.00
10883;DHT22;5494;51.796;10.952;2022-08-11T15:44:48;28.30;55.40
10883;DHT22;5494;51.796;10.952;2022-08-11T15:47:41;28.30;55.10
10883;DHT22;5494;51.796;10.952;2022-08-11T15:50:19;28.30;55.30
10883;DHT22;5494;51.796;10.952;2022-08-11T15:52:52;28.20;55.40
10883;DHT22;5494;51.796;10.952;2022-08-11T15:55:25;28.30;54.40
10883;DHT22;5494;51.796;10.952;2022-08-11T15:58:00;28.20;53.90
10883;DHT22;5494;51.796;10.952;2022-08-11T16:00:48;28.30;54.30
10883;DHT22;5494;51.796;10.952;2022-08-11T16:03:41;28.30;54.50
10883;DHT22;5494;51.796;10.952;2022-08-11T16:06:53;28.30;54.50
10883;DHT22;5494;51.796;10.952;2022-08-11T16:09:29;28.30;54.30
10883;DHT22;5494;51.796;10.952;2022-08-11T16:12:17;28.20;54.40
10883;DHT22;5494;51.796;10.952;2022-08-11T16:14:52;28.20;54.40
10883;DHT22;5494;51.796;10.952;2022-08-11T16:17:50;28.10;54.20
10883;DHT22;5494;51.796;10.952;2022-08-11T16:20:23;28.00;54.70
10883;DHT22;5494;51.796;10.952;2022-08-11T16:22:59;28.00;55.10
10883;DHT22;5494;51.796;10.952;2022-08-11T16:25:33;28.00;55.20
10883;DHT22;5494;51.796;10.952;2022-08-11T16:28:24;27.90;55.00
10883;DHT22;5494;51.796;10.952;2022-08-11T16:30:55;27.90;54.80
10883;DHT22;5494;51.796;10.952;2022-08-11T16:33:24;27.90;55.00
10883;DHT22;5494;51.796;10.952;2022-08-11T16:36:15;27.90;55.20
10883;DHT22;5494;51.796;10.952;2022-08-11T16:39:05;27.90;55.10
10883;DHT22;5494;51.796;10.952;2022-08-11T16:41:37;27.90;55.10
10883;DHT22;5494;51.796;10.952;2022-08-11T16:44:26;27.80;55.10
10883;DHT22;5494;51.796;10.952;2022-08-11T16:47:17;27.90;55.10
10883;DHT22;5494;51.796;10.952;2022-08-11T16:50:08;27.80;55.70
10883;DHT22;5494;51.796;10.952;2022-08-11T16:52:38;27.90;55.90
10883;DHT22;5494;51.796;10.952;2022-08-11T16:55:09;27.80;55.70
10883;DHT22;5494;51.796;10.952;2022-08-11T16:57:58;27.80;56.20
10883;DHT22;5494;51.796;10.952;2022-08-11T17:00:47;27.80;55.40
10883;DHT22;5494;51.796;10.952;2022-08-11T17:03:20;27.80;55.90
10883;DHT22;5494;51.796;10.952;2022-08-11T17:06:08;27.80;56.20
10883;DHT22;5494;51.796;10.952;2022-08-11T17:08:57;27.70;56.60
10883;DHT22;5494;51.796;10.952;2022-08-11T17:11:55;27.70;56.20
10883;DHT22;5494;51.796;10.952;2022-08-11T17:14:48;27.60;56.40
10883;DHT22;5494;51.796;10.952;2022-08-11T17:17:25;27.50;56.50
10883;DHT22;5494;51.796;10.952;2022-08-11T17:19:59;27.50;56.90
10883;DHT22;5494;51.796;10.952;2022-08-11T17:22:54;27.50;57.50
10883;DHT22;5494;51.796;10.952;2022-08-11T17:25:41;27.50;57.70
10883;DHT22;5494;51.796;10.952;2022-08-11T17:28:32;27.50;58.10
10883;DHT22;5494;51.796;10.952;2022-08-11T17:31:03;27.50;58.40
10883;DHT22;5494;51.796;10.952;2022-08-11T17:33:51;27.40;58.30
10883;DHT22;5494;51.796;10.952;2022-08-11T17:36:42;27.40;58.90
10883;DHT22;5494;51.796;10.952;2022-08-11T17:39:12;27.40;58.90
10883;DHT22;5494;51.796;10.952;2022-08-11T17:41:43;27.30;58.90
10883;DHT22;5494;51.796;10.952;2022-08-11T17:44:32;27.20;59.00
10883;DHT22;5494;51.796;10.952;2022-08-11T17:47:20;27.10;59.10
10883;DHT22;5494;51.796;10.952;2022-08-11T17:50:08;27.10;59.60
10883;DHT22;5494;51.796;10.952;2022-08-11T17:52:45;27.00;59.30